Air Navigation Services of Czech Republic
Airport: LKPR Updated:  01.04.2020 00:30:27  UTC
 METAR LKPR 01.04. 00:30 ...
METAR LKPR 010030Z 22004KT CAVOK M04/M08 Q1025 NOSIG RMK REG QNH 1020=
 TAF LKPR 31.03. 23:00 ...
TAF LKPR 312300Z 0100/0206 21003KT CAVOK      PROB30 TEMPO 0103/0106 5000 BR NSC      TEMPO 0108/0117 21006KT=